Time;durP1;ratioP1;P1;durP2;ratioP2;P2;SDS_P1;SDS_P2;PMS_P1;PMS_P2;Temp;Humidity;BMP_temperature;BMP_pressure;BME280_temperature;BME280_humidity;BME280_pressure;Samples;Min_cycle;Max_cycle;Signal;HPM_P1;HPM_P2
2023/03/09 00:02:46;;;;;;;4.38;1.25;;;;;;;0.28;63.06;97130.66;6322637;28;20040;-67
2023/03/09 00:05:58;;;;;;;1.73;1.58;;;;;;;0.24;64.18;97133.34;6322213;28;20536;-67
2023/03/09 00:09:03;;;;;;;2.97;2.10;;;;;;;0.09;64.09;97135.34;6321751;28;20074;-67
2023/03/09 00:12:05;;;;;;;1.60;1.50;;;;;;;0.01;64.95;97142.41;6321816;28;20516;-67
2023/03/09 00:15:09;;;;;;;2.58;2.30;;;;;;;0.05;64.45;97148.38;6322369;28;20048;-67
2023/03/09 00:18:10;;;;;;;2.75;1.88;;;;;;;0.15;64.73;97145.59;6321868;28;20050;-68
2023/03/09 00:21:34;;;;;;;3.42;2.28;;;;;;;0.26;64.54;97153.16;6322194;28;20028;-67
2023/03/09 00:24:33;;;;;;;3.17;2.35;;;;;;;0.20;64.64;97142.91;6320916;28;20138;-67
2023/03/09 00:27:37;;;;;;;2.13;1.48;;;;;;;0.29;64.17;97132.38;6322058;28;20079;-67
2023/03/09 00:30:40;;;;;;;2.83;1.60;;;;;;;0.18;65.15;97135.16;6321552;28;20051;-68
2023/03/09 00:33:47;;;;;;;2.88;2.33;;;;;;;-0.05;65.12;97137.34;6321700;28;20052;-68
2023/03/09 00:36:48;;;;;;;2.33;1.77;;;;;;;0.01;65.19;97136.38;6321402;28;20052;-68
2023/03/09 00:39:52;;;;;;;3.03;2.20;;;;;;;0.11;65.15;97133.56;6321641;28;20040;-67
2023/03/09 00:42:56;;;;;;;3.75;2.58;;;;;;;0.15;64.46;97140.41;6320617;28;20040;-67
2023/03/09 00:45:59;;;;;;;2.60;2.03;;;;;;;-0.07;65.06;97139.09;6321156;28;20072;-68
2023/03/09 00:49:05;;;;;;;3.42;2.05;;;;;;;-0.08;65.23;97137.41;6321540;28;20047;-67
2023/03/09 00:52:06;;;;;;;;;;;;;;;-0.20;65.74;97146.22;6321020;28;20071;-68
2023/03/09 00:55:10;;;;;;;3.67;2.90;;;;;;;-0.42;65.85;97147.50;6319822;28;20086;-67
2023/03/09 00:58:12;;;;;;;3.17;2.22;;;;;;;-0.66;66.19;97134.09;6321025;28;20070;-68
2023/03/09 01:01:22;;;;;;;3.38;2.90;;;;;;;-0.73;66.82;97124.75;6321258;28;20040;-66
2023/03/09 01:04:27;;;;;;;5.80;3.75;;;;;;;-0.71;66.48;97104.88;6321326;28;20040;-68
2023/03/09 01:07:34;;;;;;;4.28;2.85;;;;;;;-0.43;67.10;97120.78;6320905;28;20050;-68
2023/03/09 01:10:41;;;;;;;3.03;1.80;;;;;;;-0.16;66.45;97119.44;6320720;28;20046;-68
2023/03/09 01:13:47;;;;;;;3.38;2.30;;;;;;;-0.04;65.31;97124.38;6320782;28;20425;-67
2023/03/09 01:16:52;;;;;;;2.58;1.67;;;;;;;0.13;64.40;97112.84;6319285;28;20081;-67
2023/03/09 01:19:56;;;;;;;2.22;1.73;;;;;;;0.17;64.41;97117.06;6320834;28;20508;-67
2023/03/09 01:23:00;;;;;;;2.97;2.20;;;;;;;0.24;64.26;97118.66;6320374;28;20135;-68
2023/03/09 01:26:04;;;;;;;2.47;2.08;;;;;;;0.22;64.11;97110.06;6320590;28;20042;-68
2023/03/09 01:29:08;;;;;;;;;;;;;;;0.35;64.20;97123.63;6302692;28;20106;-67
2023/03/09 01:32:14;;;;;;;3.70;2.90;;;;;;;0.22;64.44;97133.38;6320530;28;20053;-68
2023/03/09 01:35:19;;;;;;;3.70;2.88;;;;;;;0.15;64.48;97135.22;6318562;28;20169;-67
2023/03/09 01:38:23;;;;;;;3.95;2.88;;;;;;;0.19;64.73;97141.19;6320696;28;20050;-68
2023/03/09 01:41:27;;;;;;;3.67;2.20;;;;;;;0.15;64.74;97136.97;6320309;28;20497;-68
2023/03/09 01:44:32;;;;;;;3.22;2.28;;;;;;;0.21;64.73;97149.78;6320252;28;20044;-68
2023/03/09 01:47:37;;;;;;;3.00;2.50;;;;;;;0.08;65.00;97148.31;6319961;28;20416;-67
2023/03/09 01:50:43;;;;;;;2.47;1.92;;;;;;;0.01;65.59;97141.56;6319602;28;20046;-67
2023/03/09 01:53:49;;;;;;;3.70;2.95;;;;;;;-0.05;65.24;97132.19;6319137;28;20082;-68
2023/03/09 01:57:00;;;;;;;3.70;2.33;;;;;;;0.03;65.41;97134.59;6320345;28;20036;-67
2023/03/09 02:00:08;;;;;;;4.60;3.10;;;;;;;-0.15;65.03;97147.00;6320086;28;20044;-67
2023/03/09 02:03:27;;;;;;;4.22;2.70;;;;;;;-0.20;65.80;97138.47;6319911;28;20044;-67
2023/03/09 02:06:30;;;;;;;2.90;1.58;;;;;;;-0.10;65.37;97155.53;6319564;28;20046;-67
2023/03/09 02:09:58;;;;;;;3.40;2.30;;;;;;;0.08;65.09;97133.63;6319403;28;20046;-67
2023/03/09 02:13:10;;;;;;;4.28;2.90;;;;;;;-0.07;65.15;97139.97;6319489;28;20046;-68
2023/03/09 02:16:15;;;;;;;3.53;2.83;;;;;;;0.16;65.55;97144.69;6319784;28;20040;-68
2023/03/09 02:19:57;;;;;;;3.78;2.88;;;;;;;-0.02;66.03;97132.97;6319541;28;20109;-68
2023/03/09 02:23:03;;;;;;;3.33;2.53;;;;;;;-0.15;65.85;97133.22;6319291;28;20063;-67
2023/03/09 02:26:17;;;;;;;3.65;2.97;;;;;;;-0.03;65.51;97128.69;6319433;28;20214;-67
2023/03/09 02:29:21;;;;;;;3.75;2.30;;;;;;;0.06;64.66;97131.94;6319285;28;20564;-68
2023/03/09 02:32:26;;;;;;;4.38;3.05;;;;;;;0.03;65.16;97140.66;6319055;28;20042;-68
2023/03/09 02:35:31;;;;;;;5.90;3.30;;;;;;;0.11;65.33;97143.91;6319010;28;20412;-67
2023/03/09 02:38:36;;;;;;;6.70;3.25;;;;;;;0.14;64.93;97140.44;6317350;28;20076;-69
2023/03/09 02:41:40;;;;;;;4.32;2.67;;;;;;;0.15;64.75;97139.56;6318938;28;20127;-67
2023/03/09 02:44:46;;;;;;;2.50;2.05;;;;;;;0.28;64.56;97146.19;6318937;28;20421;-68
2023/03/09 02:47:52;;;;;;;3.33;1.80;;;;;;;0.12;65.34;97157.75;6317712;28;20036;-68
2023/03/09 02:50:57;;;;;;;2.80;2.45;;;;;;;0.18;65.02;97144.69;6317383;28;20054;-67
2023/03/09 02:54:02;;;;;;;2.58;2.08;;;;;;;0.16;65.33;97131.75;6318656;28;20074;-67
2023/03/09 02:57:04;;;;;;;3.38;2.50;;;;;;;0.05;64.94;97141.44;6318986;28;20413;-68
2023/03/09 03:00:13;;;;;;;6.63;3.53;;;;;;;-0.06;65.58;97133.91;6318682;28;20044;-68
2023/03/09 03:03:19;;;;;;;3.83;2.92;;;;;;;-0.02;65.84;97140.72;6319089;28;20077;-68
2023/03/09 03:06:23;;;;;;;4.18;3.08;;;;;;;-0.07;65.66;97134.78;6322294;28;20044;-67
2023/03/09 03:09:28;;;;;;;5.22;3.08;;;;;;;-0.12;66.15;97144.34;6323812;28;20046;-68
2023/03/09 03:12:34;;;;;;;13.48;2.90;;;;;;;-0.10;66.26;97145.19;6323430;28;20413;-68
2023/03/09 03:15:39;;;;;;;4.28;3.40;;;;;;;-0.14;65.75;97143.56;6323318;28;20054;-68
2023/03/09 03:18:43;;;;;;;4.85;3.05;;;;;;;-0.15;66.37;97138.41;6323615;28;20070;-67
2023/03/09 03:21:49;;;;;;;5.03;3.38;;;;;;;-0.12;65.49;97149.53;6323262;28;20043;-68
2023/03/09 03:24:54;;;;;;;3.90;3.10;;;;;;;-0.02;65.15;97135.56;6323297;28;20050;-68
2023/03/09 03:27:59;;;;;;;4.93;2.72;;;;;;;0.04;65.00;97157.03;6323134;28;20043;-68
2023/03/09 03:31:04;;;;;;;3.55;2.63;;;;;;;0.08;64.30;97146.56;6323196;28;20050;-68
2023/03/09 03:34:09;;;;;;;3.67;2.90;;;;;;;0.16;63.58;97172.31;6323168;28;20047;-69
2023/03/09 03:37:14;;;;;;;3.92;2.60;;;;;;;0.32;62.94;97165.97;6321682;28;20146;-68
2023/03/09 03:40:19;;;;;;;5.45;3.03;;;;;;;0.40;62.50;97156.31;6321538;28;20529;-68
2023/03/09 03:43:23;;;;;;;2.22;2.03;;;;;;;0.43;62.19;97143.31;6322721;28;20036;-68
2023/03/09 03:46:26;;;;;;;;;;;;;;;0.61;60.94;97154.16;6322043;28;20035;-68
2023/03/09 03:49:31;;;;;;;3.45;2.47;;;;;;;0.38;61.94;97147.72;6322618;28;20026;-67
2023/03/09 03:52:36;;;;;;;2.35;1.80;;;;;;;0.39;61.91;97153.75;6322575;28;20059;-68
2023/03/09 03:55:41;;;;;;;2.35;2.00;;;;;;;0.31;61.74;97140.97;6322477;28;20047;-68
2023/03/09 03:58:46;;;;;;;2.78;2.08;;;;;;;0.30;61.30;97143.56;6322485;28;20421;-69
2023/03/09 04:01:51;;;;;;;3.13;2.35;;;;;;;0.23;61.38;97137.69;6321404;28;20060;-68
2023/03/09 04:04:56;;;;;;;1.92;1.48;;;;;;;0.15;61.65;97145.59;6322782;28;20032;-68
2023/03/09 04:08:03;;;;;;;2.22;2.00;;;;;;;0.25;61.38;97135.88;6322404;28;20050;-68
2023/03/09 04:11:09;;;;;;;4.13;2.55;;;;;;;0.32;60.21;97136.66;6322280;28;20054;-68
2023/03/09 04:14:14;;;;;;;4.25;2.53;;;;;;;0.31;60.31;97140.97;6321895;28;20105;-68
2023/03/09 04:17:17;;;;;;;2.13;1.60;;;;;;;0.42;59.92;97140.72;6319316;28;20501;-68
2023/03/09 04:20:22;;;;;;;2.20;1.90;;;;;;;0.44;59.63;97146.75;6321897;28;20048;-68
2023/03/09 04:23:26;;;;;;;3.20;2.15;;;;;;;0.55;59.53;97154.28;6322227;28;20047;-68
2023/03/09 04:26:31;;;;;;;2.85;1.83;;;;;;;0.62;58.92;97163.63;6321967;28;20040;-67
2023/03/09 04:29:36;;;;;;;3.22;2.75;;;;;;;0.63;59.09;97157.59;6320502;28;20363;-68
2023/03/09 04:32:40;;;;;;;3.00;2.17;;;;;;;0.68;58.82;97171.28;6321755;28;20417;-69
2023/03/09 04:35:46;;;;;;;2.17;1.42;;;;;;;0.84;57.88;97157.09;6321522;28;20044;-68
2023/03/09 04:38:48;;;;;;;3.25;1.80;;;;;;;0.70;58.30;97159.13;6320118;28;20084;-68
2023/03/09 04:41:54;;;;;;;5.57;2.25;;;;;;;0.84;57.23;97149.34;6320097;28;20047;-68
2023/03/09 04:44:58;;;;;;;3.90;1.95;;;;;;;0.74;57.80;97160.78;6321536;28;20046;-68
2023/03/09 04:48:03;;;;;;;1.90;1.65;;;;;;;0.72;58.01;97147.03;6321410;28;20112;-67
2023/03/09 04:51:08;;;;;;;2.47;1.77;;;;;;;0.59;58.38;97166.28;6320293;28;20048;-67
2023/03/09 04:54:12;;;;;;;6.60;3.35;;;;;;;0.48;58.97;97163.06;6320744;28;20058;-68
2023/03/09 04:57:18;;;;;;;3.03;2.22;;;;;;;0.57;58.09;97152.53;6320831;28;20043;-69
2023/03/09 05:00:23;;;;;;;1.50;1.40;;;;;;;0.50;57.84;97161.28;6321207;28;20046;-68
2023/03/09 05:03:27;;;;;;;2.10;1.90;;;;;;;0.43;58.71;97161.44;6320984;28;20051;-69
2023/03/09 05:06:32;;;;;;;2.47;2.13;;;;;;;0.56;57.55;97145.63;6319826;28;20047;-69
2023/03/09 05:09:36;;;;;;;2.75;1.83;;;;;;;0.54;58.58;97147.38;6319884;28;20098;-68
2023/03/09 05:12:41;;;;;;;3.40;2.40;;;;;;;0.79;58.29;97152.91;6320595;28;20204;-69
2023/03/09 05:15:45;;;;;;;2.47;1.95;;;;;;;1.22;56.63;97147.63;6320796;28;20054;-67
2023/03/09 05:18:50;;;;;;;2.47;1.90;;;;;;;1.33;55.83;97143.03;6320459;28;20047;-67
2023/03/09 05:21:54;;;;;;;3.72;2.58;;;;;;;1.25;55.66;97147.56;6320583;28;20051;-68
2023/03/09 05:24:58;;;;;;;2.40;2.20;;;;;;;1.04;56.26;97148.88;6320638;28;20040;-67
2023/03/09 05:28:04;;;;;;;3.10;2.00;;;;;;;1.11;56.12;97152.22;6320443;28;20055;-67
2023/03/09 05:31:13;;;;;;;3.25;2.28;;;;;;;1.45;54.57;97156.59;6320228;28;20044;-68
2023/03/09 05:34:17;;;;;;;4.63;2.75;;;;;;;1.49;54.88;97135.72;6320573;28;20424;-69
2023/03/09 05:37:21;;;;;;;4.50;2.63;;;;;;;1.59;53.51;97149.34;6318981;28;20287;-68
2023/03/09 05:40:25;;;;;;;4.45;2.58;;;;;;;1.63;53.47;97137.13;6318837;28;20054;-68
2023/03/09 05:43:29;;;;;;;4.68;2.50;;;;;;;1.75;52.72;97149.78;6319273;28;20058;-68
2023/03/09 05:46:35;;;;;;;3.67;2.67;;;;;;;2.11;52.25;97171.34;6320135;28;20054;-68
2023/03/09 05:49:40;;;;;;;1.42;1.33;;;;;;;2.80;50.76;97156.44;6320009;28;20040;-69
2023/03/09 05:52:45;;;;;;;3.83;2.33;;;;;;;3.21;49.54;97156.94;6319513;28;20059;-67
2023/03/09 05:55:53;;;;;;;1.75;1.27;;;;;;;3.65;48.62;97136.44;6319767;28;20076;-68
2023/03/09 05:58:57;;;;;;;1.88;1.40;;;;;;;3.96;46.75;97146.69;6319636;28;20066;-68
2023/03/09 06:02:02;;;;;;;4.20;2.10;;;;;;;4.21;46.76;97136.25;6318159;28;20051;-68
2023/03/09 06:05:05;;;;;;;2.72;2.28;;;;;;;5.12;44.85;97125.06;6319409;28;20039;-67
2023/03/09 06:08:09;;;;;;;;;;;;;;;6.22;42.82;97120.53;6319674;28;20047;-68
2023/03/09 06:11:15;;;;;;;2.28;2.08;;;;;;;6.25;41.83;97125.63;6319035;28;19965;-68
2023/03/09 06:14:20;;;;;;;4.85;2.05;;;;;;;6.65;41.49;97129.13;6319264;28;20046;-68
2023/03/09 06:17:25;;;;;;;4.05;2.10;;;;;;;7.13;40.71;97127.78;6319385;28;20519;-68
2023/03/09 06:20:31;;;;;;;1.90;1.70;;;;;;;7.58;39.07;97126.47;6319487;28;20039;-68
2023/03/09 06:23:36;;;;;;;2.60;1.70;;;;;;;8.62;37.55;97141.34;6317774;28;20054;-69
2023/03/09 06:26:38;;;;;;;;;;;;;;;9.81;35.23;97136.53;6318326;28;20154;-68
2023/03/09 06:29:43;;;;;;;2.63;1.80;;;;;;;9.53;35.10;97121.50;6319078;28;20073;-68
2023/03/09 06:32:48;;;;;;;2.25;2.05;;;;;;;9.83;34.48;97121.53;6319150;28;20086;-67
2023/03/09 06:35:51;;;;;;;;;;;;;;;10.10;33.25;97123.47;6318002;28;20444;-68
2023/03/09 06:38:56;;;;;;;2.10;1.60;;;;;;;9.32;34.11;97113.06;6319017;28;20626;-67
2023/03/09 06:42:01;;;;;;;2.85;1.95;;;;;;;9.15;34.60;97114.00;6322860;28;20042;-68
2023/03/09 06:45:05;;;;;;;2.17;1.80;;;;;;;8.86;35.50;97109.47;6324337;28;20040;-68
2023/03/09 06:48:09;;;;;;;;;;;;;;;9.34;35.29;97113.81;6324460;28;20046;-68
2023/03/09 06:51:14;;;;;;;3.08;1.90;;;;;;;8.81;35.45;97114.97;6324178;28;20014;-69
2023/03/09 06:54:18;;;;;;;3.45;2.10;;;;;;;9.28;34.69;97123.81;6323814;28;20062;-69
2023/03/09 06:57:23;;;;;;;3.17;2.17;;;;;;;9.26;33.96;97120.44;6324115;28;20047;-68
2023/03/09 07:00:28;;;;;;;2.95;2.10;;;;;;;8.46;34.96;97125.56;6324059;28;20048;-68
2023/03/09 07:03:31;;;;;;;;;;;;;;;7.66;35.97;97123.47;6324682;28;20421;-67
2023/03/09 07:06:36;;;;;;;2.25;1.33;;;;;;;6.27;38.52;97123.81;6323762;28;20396;-68
2023/03/09 07:09:41;;;;;;;4.38;2.42;;;;;;;5.52;40.07;97111.28;6323608;28;20097;-68
2023/03/09 07:12:48;;;;;;;3.30;2.03;;;;;;;5.80;39.58;97113.63;6323738;28;20043;-68
2023/03/09 07:15:53;;;;;;;4.90;2.17;;;;;;;5.33;40.08;97111.19;6323361;28;20425;-68
2023/03/09 07:18:55;;;;;;;;;;;;;;;5.50;40.20;97133.16;6322444;28;20525;-68
2023/03/09 07:22:00;;;;;;;2.55;1.73;;;;;;;5.08;41.17;97128.72;6323343;28;19927;-67
2023/03/09 07:25:05;;;;;;;2.92;2.20;;;;;;;4.63;41.94;97113.91;6324005;28;20052;-67
2023/03/09 07:28:09;;;;;;;4.00;2.35;;;;;;;3.93;43.33;97130.31;6323075;28;20421;-68
2023/03/09 07:31:13;;;;;;;;;;;;;;;3.92;43.75;97113.84;6323628;28;20462;-68
2023/03/09 07:34:18;;;;;;;3.78;2.60;;;;;;;3.31;44.53;97110.66;6323283;28;19927;-68
2023/03/09 07:37:23;;;;;;;3.45;2.45;;;;;;;3.41;44.65;97117.28;6323161;28;20421;-68
2023/03/09 07:40:28;;;;;;;3.40;2.40;;;;;;;3.85;44.42;97111.50;6322909;28;20040;-68
2023/03/09 07:43:33;;;;;;;3.72;2.45;;;;;;;4.44;42.95;97114.56;6322977;28;20040;-68
2023/03/09 07:46:38;;;;;;;4.10;2.00;;;;;;;4.87;42.38;97115.59;6322746;28;20050;-68
2023/03/09 07:49:42;;;;;;;2.90;1.50;;;;;;;4.54;42.14;97111.66;6321004;28;20052;-68
2023/03/09 07:52:48;;;;;;;2.88;1.73;;;;;;;3.88;43.97;97122.66;6321858;28;20150;-68
2023/03/09 07:56:00;;;;;;;3.28;2.72;;;;;;;3.41;44.88;97132.88;6322427;28;20036;-68
2023/03/09 07:59:05;;;;;;;4.78;2.70;;;;;;;3.47;44.98;97124.03;6319866;28;20032;-69
2023/03/09 08:02:11;;;;;;;4.45;2.50;;;;;;;4.61;43.17;97118.31;6322391;28;20042;-68
2023/03/09 08:05:18;;;;;;;2.80;2.38;;;;;;;6.47;39.53;97120.31;6322553;28;20047;-67
2023/03/09 08:08:27;;;;;;;2.95;1.88;;;;;;;7.71;36.93;97104.94;6322547;28;20036;-68
2023/03/09 08:11:32;;;;;;;2.80;2.15;;;;;;;7.87;36.16;97111.13;6322183;28;20078;-67
2023/03/09 08:14:35;;;;;;;2.58;2.38;;;;;;;8.09;35.75;97131.81;6321966;28;20044;-68
2023/03/09 08:17:42;;;;;;;3.92;1.92;;;;;;;8.21;35.87;97109.38;6322182;28;20036;-68
2023/03/09 08:20:47;;;;;;;2.70;1.80;;;;;;;8.43;35.12;97117.84;6321920;28;20044;-68
2023/03/09 08:23:52;;;;;;;2.00;1.38;;;;;;;8.84;34.64;97112.19;6321885;28;20072;-68
2023/03/09 08:26:59;;;;;;;2.58;1.85;;;;;;;9.18;33.89;97123.47;6322088;28;20048;-67
2023/03/09 08:30:02;;;;;;;2.15;1.67;;;;;;;9.12;34.04;97129.91;6321415;28;20178;-68
2023/03/09 08:33:05;;;;;;;2.80;2.08;;;;;;;9.48;33.85;97114.81;6321211;28;20178;-68
2023/03/09 08:36:18;;;;;;;3.92;2.63;;;;;;;9.74;33.32;97116.81;6322351;28;20284;-68
2023/03/09 08:39:20;;;;;;;2.03;1.55;;;;;;;9.70;32.72;97120.53;6319445;28;20456;-68
2023/03/09 08:42:24;;;;;;;2.90;2.00;;;;;;;9.18;33.62;97118.22;6321766;28;20051;-68
2023/03/09 08:45:31;;;;;;;4.32;2.33;;;;;;;9.20;33.50;97116.38;6321624;28;20035;-69
2023/03/09 08:48:33;;;;;;;2.15;1.95;;;;;;;9.81;33.04;97107.63;6320868;28;20143;-68
2023/03/09 08:51:38;;;;;;;3.25;2.03;;;;;;;10.41;32.01;97105.88;6321107;28;20516;-68
2023/03/09 08:54:46;;;;;;;5.57;2.58;;;;;;;10.14;32.07;97108.38;6320844;28;20428;-68
2023/03/09 08:57:51;;;;;;;3.05;2.35;;;;;;;9.99;32.24;97094.31;6321032;28;20055;-68
2023/03/09 09:00:53;;;;;;;3.08;2.22;;;;;;;9.85;32.33;97097.75;6320685;28;20581;-68
2023/03/09 09:03:57;;;;;;;3.05;1.83;;;;;;;9.77;32.00;97094.75;6319999;28;20036;-68
2023/03/09 09:07:05;;;;;;;2.35;1.85;;;;;;;9.36;32.66;97083.03;6320212;28;20075;-68
2023/03/09 09:10:10;;;;;;;3.28;2.33;;;;;;;9.22;33.56;97089.06;6320852;28;20036;-67
2023/03/09 09:13:14;;;;;;;3.00;1.73;;;;;;;9.71;32.87;97085.47;6320620;28;20494;-68
2023/03/09 09:16:20;;;;;;;2.65;1.70;;;;;;;10.21;32.24;97081.59;6320728;28;20046;-68
2023/03/09 09:19:26;;;;;;;2.28;1.83;;;;;;;10.38;31.82;97079.78;6320748;28;20044;-68
2023/03/09 09:22:28;;;;;;;3.33;1.70;;;;;;;10.03;32.23;97086.19;6320578;28;20043;-67
2023/03/09 09:25:32;;;;;;;2.20;1.58;;;;;;;9.76;32.91;97088.63;6320293;28;20165;-68
2023/03/09 09:28:36;;;;;;;3.70;1.83;;;;;;;9.38;32.59;97083.81;6320422;28;20048;-68
2023/03/09 09:31:42;;;;;;;4.43;1.92;;;;;;;8.67;33.52;97075.53;6320051;28;20498;-68
2023/03/09 09:34:43;;;;;;;2.92;1.90;;;;;;;8.04;34.43;97070.94;6319806;28;20608;-68
2023/03/09 09:37:47;;;;;;;;;;;;;;;8.25;34.69;97063.75;6320532;28;20044;-68
2023/03/09 09:40:50;;;;;;;3.45;2.13;;;;;;;7.56;35.55;97069.88;6319650;28;20308;-69
2023/03/09 09:44:04;;;;;;;3.55;2.47;;;;;;;7.51;35.84;97080.56;6320121;28;20043;-68
2023/03/09 09:47:16;;;;;;;3.00;2.50;;;;;;;7.87;35.25;97090.16;6319977;28;20044;-68
2023/03/09 09:50:27;;;;;;;2.60;2.38;;;;;;;8.02;35.05;97078.88;6319949;28;20048;-68
2023/03/09 09:53:42;;;;;;;3.65;2.00;;;;;;;8.93;33.91;97077.56;6319362;28;20663;-68
2023/03/09 09:56:55;;;;;;;4.03;2.20;;;;;;;8.42;34.35;97074.22;6319399;28;20040;-68
2023/03/09 10:00:06;;;;;;;5.47;3.67;;;;;;;8.36;34.59;97071.88;6319902;28;20637;-68
2023/03/09 10:03:22;;;;;;;4.50;2.33;;;;;;;8.26;34.84;97082.00;6319439;28;20047;-68
2023/03/09 10:06:28;;;;;;;4.18;2.55;;;;;;;7.84;35.66;97069.31;6319658;28;20078;-68
2023/03/09 10:09:39;;;;;;;3.03;1.98;;;;;;;7.48;36.59;97061.56;6319582;28;20048;-69
2023/03/09 10:12:46;;;;;;;2.85;2.03;;;;;;;7.01;37.23;97073.41;6319374;28;20052;-68
2023/03/09 10:15:52;;;;;;;3.47;2.35;;;;;;;6.57;38.15;97058.03;6319334;28;20047;-69
2023/03/09 10:19:07;;;;;;;3.28;2.38;;;;;;;6.08;39.17;97061.03;6319355;28;20043;-68
2023/03/09 10:22:24;;;;;;;2.55;2.05;;;;;;;5.73;39.95;97065.16;6318877;28;20047;-67
2023/03/09 10:25:32;;;;;;;1.77;1.65;;;;;;;5.21;41.24;97062.13;6319369;28;20413;-68
2023/03/09 10:28:42;;;;;;;4.55;2.30;;;;;;;4.60;42.69;97054.94;6319469;28;20040;-68
2023/03/09 10:31:56;;;;;;;2.58;1.58;;;;;;;4.33;43.29;97041.19;6319139;28;20044;-67
2023/03/09 10:35:09;;;;;;;2.17;1.88;;;;;;;4.48;43.11;97044.97;6318519;28;20497;-68
2023/03/09 10:38:15;;;;;;;2.97;2.55;;;;;;;4.15;43.85;97039.25;6318726;28;20059;-67
2023/03/09 10:41:19;;;;;;;4.55;2.65;;;;;;;4.26;44.05;97044.94;6318413;28;20044;-67
2023/03/09 10:44:23;;;;;;;4.25;2.75;;;;;;;4.32;43.92;97054.28;6318794;28;20048;-67
2023/03/09 10:47:25;;;;;;;4.10;2.28;;;;;;;4.18;44.61;97044.34;6319281;28;20032;-68
2023/03/09 10:50:30;;;;;;;2.45;1.55;;;;;;;3.85;45.70;97059.44;6318272;28;20051;-67
2023/03/09 10:53:41;;;;;;;3.17;2.38;;;;;;;3.41;46.87;97049.66;6318774;28;20048;-68
2023/03/09 10:56:45;;;;;;;5.75;2.75;;;;;;;3.09;47.70;97048.13;6317572;28;20055;-68
2023/03/09 11:00:05;;;;;;;4.57;2.50;;;;;;;2.96;48.25;97067.59;6318502;28;20437;-67
2023/03/09 11:03:20;;;;;;;4.60;2.30;;;;;;;2.60;49.48;97053.09;6318917;28;20060;-68
2023/03/09 11:06:23;;;;;;;3.00;2.10;;;;;;;2.69;49.57;97070.16;6318687;28;20520;-68
2023/03/09 11:09:32;;;;;;;4.95;2.20;;;;;;;2.53;49.75;97059.38;6318792;28;20040;-69
2023/03/09 11:12:39;;;;;;;4.45;2.28;;;;;;;2.39;50.34;97061.53;6318670;28;20052;-68
2023/03/09 11:15:40;;;;;;;2.17;1.85;;;;;;;2.42;51.08;97061.44;6318780;28;20493;-68
2023/03/09 11:18:48;;;;;;;4.60;1.98;;;;;;;2.34;50.91;97055.63;6318497;28;20044;-67
2023/03/09 11:21:58;;;;;;;3.15;1.90;;;;;;;2.47;51.26;97062.16;6318557;28;20043;-68
2023/03/09 11:25:03;;;;;;;2.67;1.55;;;;;;;2.79;50.45;97068.13;6318567;28;20550;-68
2023/03/09 11:28:30;;;;;;;2.35;1.65;;;;;;;3.01;49.92;97066.56;6322678;28;20044;-68
2023/03/09 11:31:42;;;;;;;2.53;1.55;;;;;;;2.87;50.13;97069.59;6323147;28;20048;-68
2023/03/09 11:34:50;;;;;;;2.50;1.88;;;;;;;2.87;50.63;97068.75;6323004;28;20059;-68
2023/03/09 11:38:15;;;;;;;2.97;1.80;;;;;;;2.92;50.69;97077.25;6322444;28;20055;-67
2023/03/09 11:41:28;;;;;;;2.35;1.75;;;;;;;2.82;50.77;97063.66;6323131;28;20043;-67
2023/03/09 11:44:43;;;;;;;0.70;0.70;;;;;;;2.69;51.02;97081.41;6323217;28;20420;-69
2023/03/09 11:47:49;;;;;;;3.72;2.00;;;;;;;2.41;51.71;97070.97;6323064;28;20036;-69
2023/03/09 11:50:56;;;;;;;;;;;;;;;2.51;51.75;97070.69;6323040;28;20046;-69
2023/03/09 11:58:21;;;;;;;3.17;1.95;;;;;;;1.87;53.74;97063.00;6323145;28;20054;-67
2023/03/09 12:01:37;;;;;;;4.65;2.72;;;;;;;1.77;53.75;97047.69;6322460;28;20067;-68
2023/03/09 12:04:45;;;;;;;3.55;2.35;;;;;;;1.47;54.41;97064.03;6322667;28;20036;-67
2023/03/09 12:07:58;;;;;;;2.33;1.90;;;;;;;1.35;55.37;97060.88;6322084;28;20044;-69
2023/03/09 12:11:31;;;;;;;3.95;2.30;;;;;;;1.28;55.82;97046.38;6322309;28;20078;-68
2023/03/09 12:14:42;;;;;;;3.38;1.98;;;;;;;1.17;55.75;97050.97;6321823;28;20539;-67
2023/03/09 12:18:24;;;;;;;5.85;3.13;;;;;;;1.07;55.98;97049.50;6321963;28;20070;-68
2023/03/09 12:21:35;;;;;;;4.30;2.05;;;;;;;1.14;56.43;97040.69;6321623;28;20130;-68
2023/03/09 12:24:43;;;;;;;3.88;1.85;;;;;;;1.16;56.50;97051.88;6321598;28;20036;-68
2023/03/09 12:27:53;;;;;;;3.60;2.40;;;;;;;1.01;56.42;97034.94;6321547;28;20036;-68
2023/03/09 12:30:57;;;;;;;4.05;2.35;;;;;;;0.88;57.29;97044.78;6320928;28;20529;-67
2023/03/09 12:34:23;;;;;;;3.15;1.63;;;;;;;1.03;56.85;97045.28;6321502;28;20043;-68
2023/03/09 12:37:27;;;;;;;3.67;2.08;;;;;;;0.71;58.03;97046.91;6320143;28;20048;-67
2023/03/09 12:40:37;;;;;;;2.17;1.55;;;;;;;0.61;58.36;97035.03;6321142;28;20058;-68
2023/03/09 12:43:47;;;;;;;2.80;2.00;;;;;;;0.57;58.61;97039.44;6321182;28;20036;-68
2023/03/09 12:46:57;;;;;;;3.33;1.90;;;;;;;0.66;58.44;97034.06;6321329;28;20060;-68
2023/03/09 12:50:03;;;;;;;4.35;1.63;;;;;;;0.70;59.15;97029.66;6320896;28;20059;-68
2023/03/09 12:53:17;;;;;;;4.18;2.22;;;;;;;0.92;58.83;97029.16;6320678;28;20048;-69
2023/03/09 12:56:22;;;;;;;4.35;3.05;;;;;;;1.10;57.50;97024.38;6319443;28;20054;-69
2023/03/09 12:59:28;;;;;;;;;;;;;;;1.12;57.58;97037.28;6321274;28;20055;-69
2023/03/09 13:02:38;;;;;;;2.85;1.80;;;;;;;0.87;58.15;97037.88;6319070;28;19920;-68
2023/03/09 13:05:48;;;;;;;3.17;2.17;;;;;;;0.72;59.13;97033.06;6320663;28;20044;-68
2023/03/09 13:09:01;;;;;;;5.00;2.50;;;;;;;0.59;58.61;97026.44;6319973;28;20040;-68
2023/03/09 13:12:18;;;;;;;2.70;2.00;;;;;;;0.30;60.17;97030.53;6319813;28;20425;-68
2023/03/09 13:15:26;;;;;;;4.93;2.50;;;;;;;0.12;60.74;97026.63;6319881;28;20051;-68
2023/03/09 13:18:28;;;;;;;3.42;2.30;;;;;;;-0.07;61.08;97031.31;6320130;28;20039;-69
2023/03/09 13:21:47;;;;;;;2.50;1.75;;;;;;;-0.14;61.10;97039.22;6320288;28;20410;-69
2023/03/09 13:25:25;;;;;;;3.05;2.25;;;;;;;-0.37;62.11;97037.09;6320335;28;20090;-69
2023/03/09 13:28:39;;;;;;;5.40;3.10;;;;;;;-0.52;62.85;97038.22;6288717;28;20059;-67
2023/03/09 13:31:47;;;;;;;3.05;2.10;;;;;;;-0.70;63.04;97034.25;6320031;28;20158;-68
2023/03/09 13:34:53;;;;;;;4.10;2.53;;;;;;;-0.79;63.38;97014.59;6320021;28;20043;-69
2023/03/09 13:38:00;;;;;;;1.65;1.40;;;;;;;-0.80;63.68;97020.63;6319528;28;20509;-69
2023/03/09 13:41:06;;;;;;;2.17;1.50;;;;;;;-0.79;64.26;97040.44;6320169;28;20081;-69
2023/03/09 13:44:16;;;;;;;1.77;1.27;;;;;;;-0.92;64.98;97013.94;6319980;28;20040;-68
2023/03/09 13:47:24;;;;;;;3.00;1.73;;;;;;;-1.09;64.86;97021.13;6319869;28;20040;-69
2023/03/09 13:50:32;;;;;;;2.80;1.83;;;;;;;-1.25;65.23;97024.84;6301651;28;20136;-69
2023/03/09 13:53:36;;;;;;;2.67;1.98;;;;;;;-1.47;65.56;97009.69;6318183;28;20059;-68
2023/03/09 13:56:40;;;;;;;3.40;2.30;;;;;;;-1.37;66.30;97013.81;6319942;28;20044;-68
2023/03/09 13:59:56;;;;;;;3.30;2.30;;;;;;;-1.46;66.51;97016.56;6318047;28;20429;-68
2023/03/09 14:03:02;;;;;;;1.98;1.42;;;;;;;-1.39;66.51;97002.69;6319357;28;20135;-69
2023/03/09 14:06:09;;;;;;;2.45;1.80;;;;;;;-1.46;66.85;97015.69;6319656;28;20036;-67
2023/03/09 14:09:36;;;;;;;3.50;2.67;;;;;;;-1.44;66.50;97034.59;6319558;28;20042;-67
2023/03/09 14:12:41;;;;;;;3.67;2.45;;;;;;;-1.70;66.80;97028.09;6320227;28;20050;-68
2023/03/09 14:15:46;;;;;;;;;;;;;;;-1.78;66.99;97039.38;6319786;28;20043;-68
2023/03/09 14:18:55;;;;;;;4.35;2.60;;;;;;;-1.89;67.78;97026.63;6319108;28;20302;-68
2023/03/09 14:22:01;;;;;;;5.85;2.97;;;;;;;-1.88;67.69;97029.19;6319007;28;20182;-68
2023/03/09 14:25:23;;;;;;;1.90;1.60;;;;;;;-1.86;68.06;97037.75;6319212;28;20047;-68
2023/03/09 14:28:30;;;;;;;3.85;2.55;;;;;;;-1.94;67.97;97033.56;6318061;28;20508;-68
2023/03/09 14:31:35;;;;;;;4.20;3.13;;;;;;;-1.87;68.12;97041.22;6319051;28;20051;-67
2023/03/09 14:34:38;;;;;;;;;;;;;;;-1.90;67.69;97041.22;6319591;28;20055;-67
2023/03/09 14:37:52;;;;;;;3.75;2.42;;;;;;;-1.85;67.75;97034.28;6319027;28;20481;-67
2023/03/09 14:41:03;;;;;;;8.40;3.58;;;;;;;-1.88;68.08;97039.50;6319229;28;20036;-68
2023/03/09 14:44:27;;;;;;;6.15;2.67;;;;;;;-1.85;67.89;97030.88;6317932;28;20046;-67
2023/03/09 14:47:32;;;;;;;9.30;2.78;;;;;;;-1.95;67.33;97045.63;6319218;28;20040;-67
2023/03/09 14:50:39;;;;;;;5.13;2.92;;;;;;;-1.90;67.67;97054.13;6318981;28;20054;-68
2023/03/09 14:53:53;;;;;;;4.97;3.17;;;;;;;-2.12;67.99;97045.84;6318364;28;20056;-67
2023/03/09 14:56:58;;;;;;;5.03;2.72;;;;;;;-2.22;67.80;97046.81;6318510;28;20036;-68
2023/03/09 15:00:05;;;;;;;3.78;3.38;;;;;;;-2.31;68.37;97050.34;6318769;28;20039;-68